Terminal Aerodrome Forecast
Issued by NWS

Home | Current Version | Previous Version | Text Only | Print | Product List | Glossary Off
Versions: 1 2 3 4 5 6 7 8 9 10 11 12 13 14 15 16 17 18

000
FTUS43 KABR 281723
TAFPIR
TAF
KPIR 281723Z 2818/2918 31015KT P6SM SCT200
     FM290400 32009KT P6SM FEW200
     FM291500 31014KT P6SM FEW120=

USA.gov is the U.S. government's official web portal to all federal, state and local government web resources and services.